sensor_id;sensor_type;location;lat;lon;timestamp;P1;durP1;ratioP1;P2;durP2;ratioP2
75195;SDS011;63773;42.282;22.782;2022-09-27T00:00:28;3.58;;;2.50;;
75195;SDS011;63773;42.282;22.782;2022-09-27T00:02:53;2.78;;;1.88;;
75195;SDS011;63773;42.282;22.782;2022-09-27T00:05:19;3.28;;;2.10;;
75195;SDS011;63773;42.282;22.782;2022-09-27T00:07:44;3.03;;;1.90;;
75195;SDS011;63773;42.282;22.782;2022-09-27T00:10:10;4.60;;;2.35;;
75195;SDS011;63773;42.282;22.782;2022-09-27T00:12:36;3.13;;;1.98;;
75195;SDS011;63773;42.282;22.782;2022-09-27T00:15:03;2.78;;;2.05;;
75195;SDS011;63773;42.282;22.782;2022-09-27T00:17:29;2.83;;;1.67;;
75195;SDS011;63773;42.282;22.782;2022-09-27T00:19:55;3.53;;;2.15;;
75195;SDS011;63773;42.282;22.782;2022-09-27T00:22:23;3.67;;;1.98;;
75195;SDS011;63773;42.282;22.782;2022-09-27T00:24:49;3.85;;;2.25;;
75195;SDS011;63773;42.282;22.782;2022-09-27T00:27:16;2.58;;;1.70;;
75195;SDS011;63773;42.282;22.782;2022-09-27T00:29:42;2.88;;;2.05;;
75195;SDS011;63773;42.282;22.782;2022-09-27T00:32:07;3.28;;;2.17;;
75195;SDS011;63773;42.282;22.782;2022-09-27T00:34:33;3.47;;;2.10;;
75195;SDS011;63773;42.282;22.782;2022-09-27T00:36:58;3.53;;;2.00;;
75195;SDS011;63773;42.282;22.782;2022-09-27T00:39:23;3.83;;;2.50;;
75195;SDS011;63773;42.282;22.782;2022-09-27T00:41:49;3.40;;;2.10;;
75195;SDS011;63773;42.282;22.782;2022-09-27T00:47:10;3.17;;;1.95;;
75195;SDS011;63773;42.282;22.782;2022-09-27T00:54:40;3.97;;;2.70;;
75195;SDS011;63773;42.282;22.782;2022-09-27T00:57:08;4.05;;;2.13;;
75195;SDS011;63773;42.282;22.782;2022-09-27T00:59:36;3.40;;;2.05;;
75195;SDS011;63773;42.282;22.782;2022-09-27T01:02:05;3.60;;;2.38;;
75195;SDS011;63773;42.282;22.782;2022-09-27T01:04:31;3.30;;;1.77;;
75195;SDS011;63773;42.282;22.782;2022-09-27T01:06:58;3.00;;;1.98;;
75195;SDS011;63773;42.282;22.782;2022-09-27T01:09:24;4.00;;;2.55;;
75195;SDS011;63773;42.282;22.782;2022-09-27T01:12:05;2.97;;;1.90;;
75195;SDS011;63773;42.282;22.782;2022-09-27T01:30:46;2.65;;;1.80;;
75195;SDS011;63773;42.282;22.782;2022-09-27T01:42:09;2.72;;;1.88;;
75195;SDS011;63773;42.282;22.782;2022-09-27T01:45:06;3.58;;;2.25;;
75195;SDS011;63773;42.282;22.782;2022-09-27T01:47:46;3.42;;;2.05;;
75195;SDS011;63773;42.282;22.782;2022-09-27T01:50:20;3.13;;;2.08;;
75195;SDS011;63773;42.282;22.782;2022-09-27T01:52:54;3.90;;;2.35;;
75195;SDS011;63773;42.282;22.782;2022-09-27T01:55:27;5.45;;;2.08;;
75195;SDS011;63773;42.282;22.782;2022-09-27T01:57:58;2.97;;;2.13;;
75195;SDS011;63773;42.282;22.782;2022-09-27T02:00:30;3.85;;;2.10;;
75195;SDS011;63773;42.282;22.782;2022-09-27T02:02:58;3.10;;;1.90;;
75195;SDS011;63773;42.282;22.782;2022-09-27T02:08:00;3.63;;;2.03;;
75195;SDS011;63773;42.282;22.782;2022-09-27T02:10:33;2.65;;;1.95;;
75195;SDS011;63773;42.282;22.782;2022-09-27T02:13:10;3.58;;;2.47;;
75195;SDS011;63773;42.282;22.782;2022-09-27T02:15:40;3.30;;;2.05;;
75195;SDS011;63773;42.282;22.782;2022-09-27T02:18:32;2.83;;;1.80;;
75195;SDS011;63773;42.282;22.782;2022-09-27T02:21:19;3.28;;;1.92;;
75195;SDS011;63773;42.282;22.782;2022-09-27T02:23:51;3.40;;;2.38;;
75195;SDS011;63773;42.282;22.782;2022-09-27T02:26:32;4.07;;;2.05;;
75195;SDS011;63773;42.282;22.782;2022-09-27T02:29:09;3.17;;;2.05;;
75195;SDS011;63773;42.282;22.782;2022-09-27T02:31:40;3.08;;;2.13;;
75195;SDS011;63773;42.282;22.782;2022-09-27T02:34:25;3.60;;;2.00;;
75195;SDS011;63773;42.282;22.782;2022-09-27T02:36:55;2.90;;;2.13;;
75195;SDS011;63773;42.282;22.782;2022-09-27T02:39:20;3.22;;;1.73;;
75195;SDS011;63773;42.282;22.782;2022-09-27T02:41:48;3.22;;;2.03;;
75195;SDS011;63773;42.282;22.782;2022-09-27T02:44:14;3.78;;;2.45;;
75195;SDS011;63773;42.282;22.782;2022-09-27T02:49:48;2.95;;;1.63;;
75195;SDS011;63773;42.282;22.782;2022-09-27T03:00:48;3.13;;;2.20;;
75195;SDS011;63773;42.282;22.782;2022-09-27T03:06:23;3.47;;;2.05;;
75195;SDS011;63773;42.282;22.782;2022-09-27T03:08:49;3.15;;;1.83;;
75195;SDS011;63773;42.282;22.782;2022-09-27T03:11:15;3.25;;;2.08;;
75195;SDS011;63773;42.282;22.782;2022-09-27T03:13:41;3.20;;;2.33;;
75195;SDS011;63773;42.282;22.782;2022-09-27T03:16:08;3.50;;;1.90;;
75195;SDS011;63773;42.282;22.782;2022-09-27T03:18:33;2.58;;;1.60;;
75195;SDS011;63773;42.282;22.782;2022-09-27T03:20:59;3.47;;;2.28;;
75195;SDS011;63773;42.282;22.782;2022-09-27T03:23:24;2.72;;;1.88;;
75195;SDS011;63773;42.282;22.782;2022-09-27T03:25:49;3.00;;;2.03;;
75195;SDS011;63773;42.282;22.782;2022-09-27T03:28:15;4.13;;;2.63;;
75195;SDS011;63773;42.282;22.782;2022-09-27T03:30:43;3.35;;;2.63;;
75195;SDS011;63773;42.282;22.782;2022-09-27T03:33:09;2.78;;;2.00;;
75195;SDS011;63773;42.282;22.782;2022-09-27T03:35:35;3.85;;;2.33;;
75195;SDS011;63773;42.282;22.782;2022-09-27T03:38:01;3.08;;;2.00;;
75195;SDS011;63773;42.282;22.782;2022-09-27T03:40:27;2.70;;;1.73;;
75195;SDS011;63773;42.282;22.782;2022-09-27T03:42:53;2.80;;;1.90;;
75195;SDS011;63773;42.282;22.782;2022-09-27T03:45:19;3.65;;;1.98;;
75195;SDS011;63773;42.282;22.782;2022-09-27T03:47:44;3.30;;;2.17;;
75195;SDS011;63773;42.282;22.782;2022-09-27T03:50:10;3.25;;;2.20;;
75195;SDS011;63773;42.282;22.782;2022-09-27T03:52:36;3.88;;;2.22;;
75195;SDS011;63773;42.282;22.782;2022-09-27T03:55:01;3.38;;;2.05;;
75195;SDS011;63773;42.282;22.782;2022-09-27T03:57:27;3.30;;;2.28;;
75195;SDS011;63773;42.282;22.782;2022-09-27T03:59:54;3.22;;;2.20;;
75195;SDS011;63773;42.282;22.782;2022-09-27T04:02:20;3.20;;;2.25;;
75195;SDS011;63773;42.282;22.782;2022-09-27T04:04:46;3.00;;;1.92;;
75195;SDS011;63773;42.282;22.782;2022-09-27T04:07:11;4.07;;;2.55;;
75195;SDS011;63773;42.282;22.782;2022-09-27T04:09:37;3.50;;;2.03;;
75195;SDS011;63773;42.282;22.782;2022-09-27T04:12:02;3.53;;;2.20;;
75195;SDS011;63773;42.282;22.782;2022-09-27T04:14:28;4.00;;;2.45;;
75195;SDS011;63773;42.282;22.782;2022-09-27T04:16:53;3.03;;;1.75;;
75195;SDS011;63773;42.282;22.782;2022-09-27T04:19:19;2.70;;;2.05;;
75195;SDS011;63773;42.282;22.782;2022-09-27T04:21:44;3.50;;;2.03;;
75195;SDS011;63773;42.282;22.782;2022-09-27T04:24:10;3.90;;;2.13;;
75195;SDS011;63773;42.282;22.782;2022-09-27T04:26:36;3.35;;;2.50;;
75195;SDS011;63773;42.282;22.782;2022-09-27T04:29:02;3.58;;;2.47;;
75195;SDS011;63773;42.282;22.782;2022-09-27T04:31:27;3.03;;;2.33;;
75195;SDS011;63773;42.282;22.782;2022-09-27T04:33:53;3.50;;;2.25;;
75195;SDS011;63773;42.282;22.782;2022-09-27T04:36:19;3.97;;;2.35;;
75195;SDS011;63773;42.282;22.782;2022-09-27T04:38:53;2.95;;;2.03;;
75195;SDS011;63773;42.282;22.782;2022-09-27T04:41:19;3.55;;;1.92;;
75195;SDS011;63773;42.282;22.782;2022-09-27T04:43:46;3.33;;;2.60;;
75195;SDS011;63773;42.282;22.782;2022-09-27T04:46:11;3.78;;;2.20;;
75195;SDS011;63773;42.282;22.782;2022-09-27T04:48:38;2.85;;;1.85;;
75195;SDS011;63773;42.282;22.782;2022-09-27T04:51:04;3.75;;;2.10;;
75195;SDS011;63773;42.282;22.782;2022-09-27T04:53:29;4.20;;;2.28;;
75195;SDS011;63773;42.282;22.782;2022-09-27T04:55:55;3.22;;;2.65;;
75195;SDS011;63773;42.282;22.782;2022-09-27T04:58:21;4.05;;;2.25;;
75195;SDS011;63773;42.282;22.782;2022-09-27T05:00:48;3.10;;;2.00;;
75195;SDS011;63773;42.282;22.782;2022-09-27T05:03:16;3.13;;;2.15;;
75195;SDS011;63773;42.282;22.782;2022-09-27T05:06:58;4.10;;;2.05;;
75195;SDS011;63773;42.282;22.782;2022-09-27T05:09:24;4.65;;;2.90;;
75195;SDS011;63773;42.282;22.782;2022-09-27T05:11:49;6.03;;;2.65;;
75195;SDS011;63773;42.282;22.782;2022-09-27T05:14:14;4.70;;;2.55;;
75195;SDS011;63773;42.282;22.782;2022-09-27T05:16:40;4.88;;;2.70;;
75195;SDS011;63773;42.282;22.782;2022-09-27T05:19:05;4.25;;;2.58;;
75195;SDS011;63773;42.282;22.782;2022-09-27T05:21:31;6.13;;;2.90;;
75195;SDS011;63773;42.282;22.782;2022-09-27T05:23:56;5.32;;;2.90;;
75195;SDS011;63773;42.282;22.782;2022-09-27T05:26:22;4.78;;;2.25;;
75195;SDS011;63773;42.282;22.782;2022-09-27T05:28:48;3.97;;;2.63;;
75195;SDS011;63773;42.282;22.782;2022-09-27T05:31:13;5.07;;;2.20;;
75195;SDS011;63773;42.282;22.782;2022-09-27T05:33:39;3.55;;;2.33;;
75195;SDS011;63773;42.282;22.782;2022-09-27T05:36:05;9.45;;;2.45;;
75195;SDS011;63773;42.282;22.782;2022-09-27T05:38:32;4.90;;;2.58;;
75195;SDS011;63773;42.282;22.782;2022-09-27T05:40:57;4.25;;;2.50;;
75195;SDS011;63773;42.282;22.782;2022-09-27T05:43:23;4.63;;;2.28;;
75195;SDS011;63773;42.282;22.782;2022-09-27T05:45:49;3.80;;;2.42;;
75195;SDS011;63773;42.282;22.782;2022-09-27T05:48:17;3.22;;;2.20;;
75195;SDS011;63773;42.282;22.782;2022-09-27T05:50:42;3.55;;;2.47;;
75195;SDS011;63773;42.282;22.782;2022-09-27T05:53:08;3.50;;;2.40;;
75195;SDS011;63773;42.282;22.782;2022-09-27T05:55:33;5.82;;;2.47;;
75195;SDS011;63773;42.282;22.782;2022-09-27T05:58:00;4.25;;;2.45;;
75195;SDS011;63773;42.282;22.782;2022-09-27T06:00:28;3.60;;;2.50;;
75195;SDS011;63773;42.282;22.782;2022-09-27T06:02:59;4.45;;;2.60;;
75195;SDS011;63773;42.282;22.782;2022-09-27T06:05:27;5.05;;;2.65;;
75195;SDS011;63773;42.282;22.782;2022-09-27T06:07:59;3.55;;;2.50;;
75195;SDS011;63773;42.282;22.782;2022-09-27T06:10:26;4.10;;;2.63;;
75195;SDS011;63773;42.282;22.782;2022-09-27T06:12:53;3.75;;;2.58;;
75195;SDS011;63773;42.282;22.782;2022-09-27T06:15:33;3.92;;;2.40;;
75195;SDS011;63773;42.282;22.782;2022-09-27T06:18:04;3.85;;;2.30;;
75195;SDS011;63773;42.282;22.782;2022-09-27T06:20:35;4.32;;;2.60;;
75195;SDS011;63773;42.282;22.782;2022-09-27T06:25:28;3.92;;;2.95;;
75195;SDS011;63773;42.282;22.782;2022-09-27T06:27:53;4.15;;;2.88;;
75195;SDS011;63773;42.282;22.782;2022-09-27T06:30:18;3.97;;;2.47;;
75195;SDS011;63773;42.282;22.782;2022-09-27T06:32:44;4.95;;;2.83;;
75195;SDS011;63773;42.282;22.782;2022-09-27T06:35:09;3.85;;;2.30;;
75195;SDS011;63773;42.282;22.782;2022-09-27T06:37:35;3.88;;;2.75;;
75195;SDS011;63773;42.282;22.782;2022-09-27T06:40:00;3.35;;;2.03;;
75195;SDS011;63773;42.282;22.782;2022-09-27T06:42:26;3.75;;;2.50;;
75195;SDS011;63773;42.282;22.782;2022-09-27T06:44:52;4.47;;;2.25;;
75195;SDS011;63773;42.282;22.782;2022-09-27T06:47:18;4.07;;;2.55;;
75195;SDS011;63773;42.282;22.782;2022-09-27T06:49:43;3.58;;;2.60;;
75195;SDS011;63773;42.282;22.782;2022-09-27T06:52:09;3.05;;;2.28;;
75195;SDS011;63773;42.282;22.782;2022-09-27T06:54:35;3.58;;;2.50;;
75195;SDS011;63773;42.282;22.782;2022-09-27T06:57:00;3.53;;;2.35;;
75195;SDS011;63773;42.282;22.782;2022-09-27T06:59:26;4.03;;;2.60;;
75195;SDS011;63773;42.282;22.782;2022-09-27T07:02:10;4.05;;;2.50;;
75195;SDS011;63773;42.282;22.782;2022-09-27T07:04:37;5.22;;;2.78;;
75195;SDS011;63773;42.282;22.782;2022-09-27T07:07:02;3.92;;;2.22;;
75195;SDS011;63773;42.282;22.782;2022-09-27T07:09:27;4.07;;;2.38;;
75195;SDS011;63773;42.282;22.782;2022-09-27T07:11:53;3.95;;;2.65;;
75195;SDS011;63773;42.282;22.782;2022-09-27T07:14:19;4.30;;;2.78;;
75195;SDS011;63773;42.282;22.782;2022-09-27T07:16:45;3.97;;;2.67;;
75195;SDS011;63773;42.282;22.782;2022-09-27T07:19:11;5.30;;;2.65;;
75195;SDS011;63773;42.282;22.782;2022-09-27T07:21:38;4.53;;;3.17;;
75195;SDS011;63773;42.282;22.782;2022-09-27T07:24:04;3.85;;;2.17;;
75195;SDS011;63773;42.282;22.782;2022-09-27T07:26:29;5.50;;;2.40;;
75195;SDS011;63773;42.282;22.782;2022-09-27T07:28:55;6.45;;;2.70;;
75195;SDS011;63773;42.282;22.782;2022-09-27T07:31:21;4.80;;;2.72;;
75195;SDS011;63773;42.282;22.782;2022-09-27T07:33:47;4.28;;;2.38;;
75195;SDS011;63773;42.282;22.782;2022-09-27T07:36:12;4.30;;;2.97;;
75195;SDS011;63773;42.282;22.782;2022-09-27T07:38:37;4.45;;;2.50;;
75195;SDS011;63773;42.282;22.782;2022-09-27T07:41:10;4.15;;;2.78;;
75195;SDS011;63773;42.282;22.782;2022-09-27T07:43:38;4.57;;;2.80;;
75195;SDS011;63773;42.282;22.782;2022-09-27T07:46:03;4.35;;;2.83;;
75195;SDS011;63773;42.282;22.782;2022-09-27T07:48:29;5.15;;;2.92;;
75195;SDS011;63773;42.282;22.782;2022-09-27T07:50:54;4.57;;;3.00;;
75195;SDS011;63773;42.282;22.782;2022-09-27T07:53:20;5.63;;;3.05;;
75195;SDS011;63773;42.282;22.782;2022-09-27T07:55:49;4.15;;;3.17;;
75195;SDS011;63773;42.282;22.782;2022-09-27T07:58:17;4.95;;;2.85;;
75195;SDS011;63773;42.282;22.782;2022-09-27T08:00:42;4.82;;;2.92;;
75195;SDS011;63773;42.282;22.782;2022-09-27T08:03:12;4.55;;;2.85;;
75195;SDS011;63773;42.282;22.782;2022-09-27T08:05:40;3.30;;;2.22;;
75195;SDS011;63773;42.282;22.782;2022-09-27T08:08:11;4.82;;;2.67;;
75195;SDS011;63773;42.282;22.782;2022-09-27T08:10:36;3.67;;;2.78;;
75195;SDS011;63773;42.282;22.782;2022-09-27T08:13:03;4.45;;;2.85;;
75195;SDS011;63773;42.282;22.782;2022-09-27T08:15:29;5.10;;;2.80;;
75195;SDS011;63773;42.282;22.782;2022-09-27T08:17:56;4.95;;;3.10;;
75195;SDS011;63773;42.282;22.782;2022-09-27T08:20:21;4.68;;;3.03;;
75195;SDS011;63773;42.282;22.782;2022-09-27T08:22:47;5.70;;;2.80;;
75195;SDS011;63773;42.282;22.782;2022-09-27T08:25:12;3.78;;;2.38;;
75195;SDS011;63773;42.282;22.782;2022-09-27T08:27:38;3.20;;;2.47;;
75195;SDS011;63773;42.282;22.782;2022-09-27T08:30:04;3.67;;;2.60;;
75195;SDS011;63773;42.282;22.782;2022-09-27T08:32:30;4.15;;;3.05;;
75195;SDS011;63773;42.282;22.782;2022-09-27T08:34:55;4.47;;;2.70;;
75195;SDS011;63773;42.282;22.782;2022-09-27T08:37:21;5.07;;;3.00;;
75195;SDS011;63773;42.282;22.782;2022-09-27T08:39:46;3.55;;;2.60;;
75195;SDS011;63773;42.282;22.782;2022-09-27T08:42:22;4.18;;;2.53;;
75195;SDS011;63773;42.282;22.782;2022-09-27T08:47:52;4.47;;;2.72;;
75195;SDS011;63773;42.282;22.782;2022-09-27T08:50:27;4.15;;;3.25;;
75195;SDS011;63773;42.282;22.782;2022-09-27T08:58:22;3.70;;;2.65;;
75195;SDS011;63773;42.282;22.782;2022-09-27T09:01:04;4.43;;;3.08;;
75195;SDS011;63773;42.282;22.782;2022-09-27T09:03:37;3.90;;;3.28;;
75195;SDS011;63773;42.282;22.782;2022-09-27T09:06:37;4.65;;;2.90;;
75195;SDS011;63773;42.282;22.782;2022-09-27T09:23:32;3.75;;;2.50;;
75195;SDS011;63773;42.282;22.782;2022-09-27T09:34:49;4.30;;;3.03;;
75195;SDS011;63773;42.282;22.782;2022-09-27T09:39:47;4.22;;;2.60;;
75195;SDS011;63773;42.282;22.782;2022-09-27T09:42:28;3.38;;;2.83;;
75195;SDS011;63773;42.282;22.782;2022-09-27T09:45:06;4.53;;;2.90;;
75195;SDS011;63773;42.282;22.782;2022-09-27T09:47:48;4.50;;;2.47;;
75195;SDS011;63773;42.282;22.782;2022-09-27T09:50:21;3.80;;;2.90;;
75195;SDS011;63773;42.282;22.782;2022-09-27T09:55:53;4.82;;;3.00;;
75195;SDS011;63773;42.282;22.782;2022-09-27T09:58:25;3.90;;;3.10;;
75195;SDS011;63773;42.282;22.782;2022-09-27T10:00:58;4.72;;;2.97;;
75195;SDS011;63773;42.282;22.782;2022-09-27T10:03:34;4.13;;;2.97;;
75195;SDS011;63773;42.282;22.782;2022-09-27T10:06:00;3.80;;;3.03;;
75195;SDS011;63773;42.282;22.782;2022-09-27T10:08:25;3.80;;;2.60;;
75195;SDS011;63773;42.282;22.782;2022-09-27T10:10:51;4.38;;;2.85;;
75195;SDS011;63773;42.282;22.782;2022-09-27T10:13:19;4.85;;;2.67;;
75195;SDS011;63773;42.282;22.782;2022-09-27T10:15:48;3.92;;;2.58;;
75195;SDS011;63773;42.282;22.782;2022-09-27T10:18:29;4.13;;;2.70;;
75195;SDS011;63773;42.282;22.782;2022-09-27T10:20:55;3.63;;;2.58;;
75195;SDS011;63773;42.282;22.782;2022-09-27T10:23:24;4.53;;;2.83;;
75195;SDS011;63773;42.282;22.782;2022-09-27T10:25:54;3.45;;;2.50;;
75195;SDS011;63773;42.282;22.782;2022-09-27T10:28:25;4.30;;;2.63;;
75195;SDS011;63773;42.282;22.782;2022-09-27T10:30:56;4.95;;;2.30;;
75195;SDS011;63773;42.282;22.782;2022-09-27T10:33:27;3.65;;;2.75;;
75195;SDS011;63773;42.282;22.782;2022-09-27T10:35:56;3.80;;;2.70;;
75195;SDS011;63773;42.282;22.782;2022-09-27T10:38:29;3.72;;;2.65;;
75195;SDS011;63773;42.282;22.782;2022-09-27T10:40:57;4.13;;;2.50;;
75195;SDS011;63773;42.282;22.782;2022-09-27T10:43:40;4.05;;;2.75;;
75195;SDS011;63773;42.282;22.782;2022-09-27T10:46:10;4.13;;;2.50;;
75195;SDS011;63773;42.282;22.782;2022-09-27T10:48:40;4.65;;;2.50;;
75195;SDS011;63773;42.282;22.782;2022-09-27T10:51:18;3.53;;;2.45;;
75195;SDS011;63773;42.282;22.782;2022-09-27T10:53:53;3.80;;;2.42;;
75195;SDS011;63773;42.282;22.782;2022-09-27T10:56:23;3.33;;;2.22;;
75195;SDS011;63773;42.282;22.782;2022-09-27T10:58:52;3.90;;;2.97;;
75195;SDS011;63773;42.282;22.782;2022-09-27T11:01:19;3.75;;;2.53;;
75195;SDS011;63773;42.282;22.782;2022-09-27T11:03:49;3.95;;;2.38;;
75195;SDS011;63773;42.282;22.782;2022-09-27T11:08:47;3.15;;;2.38;;
75195;SDS011;63773;42.282;22.782;2022-09-27T11:14:03;3.58;;;2.47;;
75195;SDS011;63773;42.282;22.782;2022-09-27T11:26:57;3.72;;;2.50;;
75195;SDS011;63773;42.282;22.782;2022-09-27T11:35:05;3.17;;;2.28;;
75195;SDS011;63773;42.282;22.782;2022-09-27T11:37:59;3.55;;;2.72;;
75195;SDS011;63773;42.282;22.782;2022-09-27T11:46:08;2.97;;;2.63;;
75195;SDS011;63773;42.282;22.782;2022-09-27T12:01:34;3.40;;;1.85;;
75195;SDS011;63773;42.282;22.782;2022-09-27T12:09:31;3.42;;;2.40;;
75195;SDS011;63773;42.282;22.782;2022-09-27T12:12:05;3.70;;;2.50;;
75195;SDS011;63773;42.282;22.782;2022-09-27T12:17:37;3.28;;;2.67;;
75195;SDS011;63773;42.282;22.782;2022-09-27T12:20:09;2.47;;;1.95;;
75195;SDS011;63773;42.282;22.782;2022-09-27T12:25:36;3.38;;;2.42;;
75195;SDS011;63773;42.282;22.782;2022-09-27T12:30:36;3.38;;;1.95;;
75195;SDS011;63773;42.282;22.782;2022-09-27T12:35:46;2.97;;;2.03;;
75195;SDS011;63773;42.282;22.782;2022-09-27T12:43:48;3.38;;;2.30;;
75195;SDS011;63773;42.282;22.782;2022-09-27T12:46:28;3.17;;;2.30;;
75195;SDS011;63773;42.282;22.782;2022-09-27T12:51:54;2.60;;;2.10;;
75195;SDS011;63773;42.282;22.782;2022-09-27T13:00:16;3.47;;;2.15;;
75195;SDS011;63773;42.282;22.782;2022-09-27T13:05:32;4.10;;;2.80;;
75195;SDS011;63773;42.282;22.782;2022-09-27T13:10:53;2.88;;;2.15;;
75195;SDS011;63773;42.282;22.782;2022-09-27T13:13:32;3.05;;;2.22;;
75195;SDS011;63773;42.282;22.782;2022-09-27T13:16:00;2.83;;;1.83;;
75195;SDS011;63773;42.282;22.782;2022-09-27T13:18:28;2.90;;;1.85;;
75195;SDS011;63773;42.282;22.782;2022-09-27T13:26:41;3.35;;;2.20;;
75195;SDS011;63773;42.282;22.782;2022-09-27T13:29:25;3.75;;;2.05;;
75195;SDS011;63773;42.282;22.782;2022-09-27T13:34:39;3.22;;;2.10;;
75195;SDS011;63773;42.282;22.782;2022-09-27T13:42:36;2.97;;;2.00;;
75195;SDS011;63773;42.282;22.782;2022-09-27T13:47:34;4.05;;;2.00;;
75195;SDS011;63773;42.282;22.782;2022-09-27T13:52:39;2.78;;;1.70;;
75195;SDS011;63773;42.282;22.782;2022-09-27T14:00:43;2.80;;;1.80;;
75195;SDS011;63773;42.282;22.782;2022-09-27T14:05:54;2.67;;;1.67;;
75195;SDS011;63773;42.282;22.782;2022-09-27T14:11:32;2.20;;;1.65;;
75195;SDS011;63773;42.282;22.782;2022-09-27T14:14:02;2.53;;;1.73;;
75195;SDS011;63773;42.282;22.782;2022-09-27T14:16:30;3.75;;;2.40;;
75195;SDS011;63773;42.282;22.782;2022-09-27T14:18:58;2.35;;;1.85;;
75195;SDS011;63773;42.282;22.782;2022-09-27T14:21:26;2.80;;;1.58;;
75195;SDS011;63773;42.282;22.782;2022-09-27T14:26:43;3.45;;;1.83;;
75195;SDS011;63773;42.282;22.782;2022-09-27T14:29:18;2.47;;;1.58;;
75195;SDS011;63773;42.282;22.782;2022-09-27T14:31:46;2.75;;;1.80;;
75195;SDS011;63773;42.282;22.782;2022-09-27T14:34:15;2.63;;;1.98;;
75195;SDS011;63773;42.282;22.782;2022-09-27T14:36:42;2.60;;;1.67;;
75195;SDS011;63773;42.282;22.782;2022-09-27T14:39:28;3.15;;;1.90;;
75195;SDS011;63773;42.282;22.782;2022-09-27T14:41:57;2.80;;;1.63;;
75195;SDS011;63773;42.282;22.782;2022-09-27T14:44:24;2.63;;;1.63;;
75195;SDS011;63773;42.282;22.782;2022-09-27T14:49:34;2.63;;;1.90;;
75195;SDS011;63773;42.282;22.782;2022-09-27T14:52:00;2.55;;;1.95;;
75195;SDS011;63773;42.282;22.782;2022-09-27T14:54:26;3.05;;;1.60;;
75195;SDS011;63773;42.282;22.782;2022-09-27T14:56:54;2.25;;;1.52;;
75195;SDS011;63773;42.282;22.782;2022-09-27T14:59:27;3.13;;;1.90;;
75195;SDS011;63773;42.282;22.782;2022-09-27T15:01:59;3.05;;;1.77;;
75195;SDS011;63773;42.282;22.782;2022-09-27T15:04:28;3.28;;;1.60;;
75195;SDS011;63773;42.282;22.782;2022-09-27T15:06:59;3.00;;;1.70;;
75195;SDS011;63773;42.282;22.782;2022-09-27T15:09:26;3.15;;;1.50;;
75195;SDS011;63773;42.282;22.782;2022-09-27T15:11:54;2.80;;;1.50;;
75195;SDS011;63773;42.282;22.782;2022-09-27T15:14:24;2.78;;;1.80;;
75195;SDS011;63773;42.282;22.782;2022-09-27T15:16:52;2.55;;;1.55;;
75195;SDS011;63773;42.282;22.782;2022-09-27T15:19:22;2.80;;;1.77;;
75195;SDS011;63773;42.282;22.782;2022-09-27T15:21:48;2.40;;;1.60;;
75195;SDS011;63773;42.282;22.782;2022-09-27T15:27:02;3.30;;;1.90;;
75195;SDS011;63773;42.282;22.782;2022-09-27T15:29:29;2.40;;;1.83;;
75195;SDS011;63773;42.282;22.782;2022-09-27T15:32:02;2.13;;;1.40;;
75195;SDS011;63773;42.282;22.782;2022-09-27T15:34:30;2.72;;;1.50;;
75195;SDS011;63773;42.282;22.782;2022-09-27T15:37:01;2.60;;;1.70;;
75195;SDS011;63773;42.282;22.782;2022-09-27T15:42:12;2.30;;;1.40;;
75195;SDS011;63773;42.282;22.782;2022-09-27T15:55:14;2.20;;;1.52;;
75195;SDS011;63773;42.282;22.782;2022-09-27T15:57:41;2.42;;;1.65;;
75195;SDS011;63773;42.282;22.782;2022-09-27T16:00:12;3.00;;;1.50;;
75195;SDS011;63773;42.282;22.782;2022-09-27T16:02:40;2.45;;;1.30;;
75195;SDS011;63773;42.282;22.782;2022-09-27T16:05:05;2.08;;;1.45;;
75195;SDS011;63773;42.282;22.782;2022-09-27T16:07:31;2.70;;;1.55;;
75195;SDS011;63773;42.282;22.782;2022-09-27T16:09:56;2.33;;;1.80;;
75195;SDS011;63773;42.282;22.782;2022-09-27T16:12:22;2.75;;;1.17;;
75195;SDS011;63773;42.282;22.782;2022-09-27T16:14:47;2.58;;;1.45;;
75195;SDS011;63773;42.282;22.782;2022-09-27T16:17:13;2.50;;;1.42;;
75195;SDS011;63773;42.282;22.782;2022-09-27T16:19:38;2.22;;;1.30;;
75195;SDS011;63773;42.282;22.782;2022-09-27T16:22:04;2.42;;;1.35;;
75195;SDS011;63773;42.282;22.782;2022-09-27T16:24:29;2.55;;;1.27;;
75195;SDS011;63773;42.282;22.782;2022-09-27T16:26:56;2.95;;;1.58;;
75195;SDS011;63773;42.282;22.782;2022-09-27T16:29:22;4.47;;;2.22;;
75195;SDS011;63773;42.282;22.782;2022-09-27T16:31:47;2.63;;;1.60;;
75195;SDS011;63773;42.282;22.782;2022-09-27T16:34:13;2.97;;;1.65;;
75195;SDS011;63773;42.282;22.782;2022-09-27T16:36:39;2.42;;;1.30;;
75195;SDS011;63773;42.282;22.782;2022-09-27T16:39:05;5.32;;;1.80;;
75195;SDS011;63773;42.282;22.782;2022-09-27T16:41:32;2.80;;;1.30;;
75195;SDS011;63773;42.282;22.782;2022-09-27T16:43:58;2.22;;;1.30;;
75195;SDS011;63773;42.282;22.782;2022-09-27T16:46:29;2.92;;;1.35;;
75195;SDS011;63773;42.282;22.782;2022-09-27T16:48:56;2.55;;;1.55;;
75195;SDS011;63773;42.282;22.782;2022-09-27T16:51:22;3.67;;;1.73;;
75195;SDS011;63773;42.282;22.782;2022-09-27T16:54:06;2.75;;;1.33;;
75195;SDS011;63773;42.282;22.782;2022-09-27T16:56:32;3.47;;;1.73;;
75195;SDS011;63773;42.282;22.782;2022-09-27T16:58:59;3.03;;;1.55;;
75195;SDS011;63773;42.282;22.782;2022-09-27T17:01:27;2.22;;;1.35;;
75195;SDS011;63773;42.282;22.782;2022-09-27T17:03:53;3.13;;;1.88;;
75195;SDS011;63773;42.282;22.782;2022-09-27T17:06:19;2.92;;;1.38;;
75195;SDS011;63773;42.282;22.782;2022-09-27T17:08:45;2.80;;;1.65;;
75195;SDS011;63773;42.282;22.782;2022-09-27T17:11:12;2.55;;;1.10;;
75195;SDS011;63773;42.282;22.782;2022-09-27T17:13:39;2.03;;;1.48;;
75195;SDS011;63773;42.282;22.782;2022-09-27T17:16:05;2.70;;;1.10;;
75195;SDS011;63773;42.282;22.782;2022-09-27T17:18:31;2.47;;;1.25;;
75195;SDS011;63773;42.282;22.782;2022-09-27T17:21:00;2.63;;;1.25;;
75195;SDS011;63773;42.282;22.782;2022-09-27T17:23:27;3.47;;;1.40;;
75195;SDS011;63773;42.282;22.782;2022-09-27T17:25:53;2.13;;;1.33;;
75195;SDS011;63773;42.282;22.782;2022-09-27T17:28:20;2.47;;;1.13;;
75195;SDS011;63773;42.282;22.782;2022-09-27T17:30:46;2.63;;;1.33;;
75195;SDS011;63773;42.282;22.782;2022-09-27T17:33:12;2.50;;;1.40;;
75195;SDS011;63773;42.282;22.782;2022-09-27T17:35:38;2.22;;;1.25;;
75195;SDS011;63773;42.282;22.782;2022-09-27T17:38:03;2.55;;;1.33;;
75195;SDS011;63773;42.282;22.782;2022-09-27T17:40:29;2.72;;;1.40;;
75195;SDS011;63773;42.282;22.782;2022-09-27T17:42:55;2.97;;;1.30;;
75195;SDS011;63773;42.282;22.782;2022-09-27T17:45:20;2.70;;;1.58;;
75195;SDS011;63773;42.282;22.782;2022-09-27T17:47:46;2.90;;;1.27;;
75195;SDS011;63773;42.282;22.782;2022-09-27T17:50:30;3.00;;;1.40;;
75195;SDS011;63773;42.282;22.782;2022-09-27T17:52:55;2.50;;;1.15;;
75195;SDS011;63773;42.282;22.782;2022-09-27T17:55:22;2.25;;;1.50;;
75195;SDS011;63773;42.282;22.782;2022-09-27T17:57:48;2.65;;;1.45;;
75195;SDS011;63773;42.282;22.782;2022-09-27T18:00:15;2.35;;;1.40;;
75195;SDS011;63773;42.282;22.782;2022-09-27T18:02:41;3.00;;;1.35;;
75195;SDS011;63773;42.282;22.782;2022-09-27T18:05:09;2.28;;;1.10;;
75195;SDS011;63773;42.282;22.782;2022-09-27T18:07:34;3.03;;;1.60;;
75195;SDS011;63773;42.282;22.782;2022-09-27T18:14:17;3.10;;;1.77;;
75195;SDS011;63773;42.282;22.782;2022-09-27T18:16:45;1.95;;;1.23;;
75195;SDS011;63773;42.282;22.782;2022-09-27T18:19:13;3.00;;;1.70;;
75195;SDS011;63773;42.282;22.782;2022-09-27T18:21:40;3.15;;;1.58;;
75195;SDS011;63773;42.282;22.782;2022-09-27T18:24:06;3.15;;;1.33;;